sensor_id;sensor_type;location;lat;lon;timestamp;P1;durP1;ratioP1;P2;durP2;ratioP2
24102;SDS011;12278;53.058;9.028;2023-03-23T00:01:51;16.95;;;12.88;;
24102;SDS011;12278;53.058;9.028;2023-03-23T00:05:52;17.70;;;12.20;;
24102;SDS011;12278;53.058;9.028;2023-03-23T00:09:52;14.02;;;12.45;;
24102;SDS011;12278;53.058;9.028;2023-03-23T00:13:56;15.18;;;11.75;;
24102;SDS011;12278;53.058;9.028;2023-03-23T00:18:02;17.95;;;12.80;;
24102;SDS011;12278;53.058;9.028;2023-03-23T00:22:02;17.42;;;12.55;;
24102;SDS011;12278;53.058;9.028;2023-03-23T00:26:03;18.45;;;12.48;;
24102;SDS011;12278;53.058;9.028;2023-03-23T00:30:04;18.35;;;13.57;;
24102;SDS011;12278;53.058;9.028;2023-03-23T00:34:05;14.95;;;12.48;;
24102;SDS011;12278;53.058;9.028;2023-03-23T00:38:06;13.80;;;11.77;;
24102;SDS011;12278;53.058;9.028;2023-03-23T00:42:08;18.60;;;13.07;;
24102;SDS011;12278;53.058;9.028;2023-03-23T00:46:08;18.83;;;13.05;;
24102;SDS011;12278;53.058;9.028;2023-03-23T00:50:09;15.95;;;12.48;;
24102;SDS011;12278;53.058;9.028;2023-03-23T00:54:11;18.45;;;15.25;;
24102;SDS011;12278;53.058;9.028;2023-03-23T00:58:13;18.67;;;14.60;;
24102;SDS011;12278;53.058;9.028;2023-03-23T01:02:15;18.23;;;14.57;;
24102;SDS011;12278;53.058;9.028;2023-03-23T01:06:16;16.38;;;12.63;;
24102;SDS011;12278;53.058;9.028;2023-03-23T01:10:17;18.55;;;13.18;;
24102;SDS011;12278;53.058;9.028;2023-03-23T01:14:18;14.43;;;12.68;;
24102;SDS011;12278;53.058;9.028;2023-03-23T01:18:20;16.23;;;13.32;;
24102;SDS011;12278;53.058;9.028;2023-03-23T01:22:20;14.15;;;12.50;;
24102;SDS011;12278;53.058;9.028;2023-03-23T01:26:22;15.95;;;12.95;;
24102;SDS011;12278;53.058;9.028;2023-03-23T01:30:25;15.85;;;13.32;;
24102;SDS011;12278;53.058;9.028;2023-03-23T01:34:26;16.17;;;14.40;;
24102;SDS011;12278;53.058;9.028;2023-03-23T01:38:27;17.70;;;14.02;;
24102;SDS011;12278;53.058;9.028;2023-03-23T01:42:32;15.50;;;12.25;;
24102;SDS011;12278;53.058;9.028;2023-03-23T01:46:35;15.60;;;12.52;;
24102;SDS011;12278;53.058;9.028;2023-03-23T01:50:38;18.08;;;14.38;;
24102;SDS011;12278;53.058;9.028;2023-03-23T01:54:48;15.85;;;12.25;;
24102;SDS011;12278;53.058;9.028;2023-03-23T01:58:53;15.82;;;12.30;;
24102;SDS011;12278;53.058;9.028;2023-03-23T02:02:55;15.40;;;12.55;;
24102;SDS011;12278;53.058;9.028;2023-03-23T02:06:56;16.63;;;12.82;;
24102;SDS011;12278;53.058;9.028;2023-03-23T02:10:58;16.80;;;12.93;;
24102;SDS011;12278;53.058;9.028;2023-03-23T02:14:59;15.05;;;13.48;;
24102;SDS011;12278;53.058;9.028;2023-03-23T02:40:33;13.95;;;12.55;;
24102;SDS011;12278;53.058;9.028;2023-03-23T02:44:45;13.77;;;12.35;;
24102;SDS011;12278;53.058;9.028;2023-03-23T02:48:47;14.30;;;12.80;;
24102;SDS011;12278;53.058;9.028;2023-03-23T02:52:51;13.85;;;12.18;;
24102;SDS011;12278;53.058;9.028;2023-03-23T02:57:06;15.85;;;12.90;;
24102;SDS011;12278;53.058;9.028;2023-03-23T03:05:38;15.02;;;12.50;;
24102;SDS011;12278;53.058;9.028;2023-03-23T03:22:02;18.25;;;14.05;;
24102;SDS011;12278;53.058;9.028;2023-03-23T03:26:04;15.65;;;13.48;;
24102;SDS011;12278;53.058;9.028;2023-03-23T03:30:06;15.35;;;13.27;;
24102;SDS011;12278;53.058;9.028;2023-03-23T03:34:14;13.52;;;12.07;;
24102;SDS011;12278;53.058;9.028;2023-03-23T03:38:17;13.82;;;11.95;;
24102;SDS011;12278;53.058;9.028;2023-03-23T03:42:18;14.40;;;12.73;;
24102;SDS011;12278;53.058;9.028;2023-03-23T03:46:18;12.35;;;11.05;;
24102;SDS011;12278;53.058;9.028;2023-03-23T03:50:19;14.40;;;11.88;;
24102;SDS011;12278;53.058;9.028;2023-03-23T03:54:20;16.35;;;12.00;;
24102;SDS011;12278;53.058;9.028;2023-03-23T03:58:21;13.25;;;11.45;;
24102;SDS011;12278;53.058;9.028;2023-03-23T04:02:22;16.45;;;12.38;;
24102;SDS011;12278;53.058;9.028;2023-03-23T04:06:23;12.65;;;11.35;;
24102;SDS011;12278;53.058;9.028;2023-03-23T04:10:28;13.05;;;11.70;;
24102;SDS011;12278;53.058;9.028;2023-03-23T04:14:29;13.20;;;11.90;;
24102;SDS011;12278;53.058;9.028;2023-03-23T04:18:30;11.98;;;10.73;;
24102;SDS011;12278;53.058;9.028;2023-03-23T04:22:32;14.95;;;11.05;;
24102;SDS011;12278;53.058;9.028;2023-03-23T04:26:32;12.20;;;10.48;;
24102;SDS011;12278;53.058;9.028;2023-03-23T04:30:33;11.75;;;10.55;;
24102;SDS011;12278;53.058;9.028;2023-03-23T04:34:33;14.35;;;11.25;;
24102;SDS011;12278;53.058;9.028;2023-03-23T04:38:35;11.43;;;10.30;;
24102;SDS011;12278;53.058;9.028;2023-03-23T04:42:36;11.60;;;10.35;;
24102;SDS011;12278;53.058;9.028;2023-03-23T04:46:37;10.25;;;9.00;;
24102;SDS011;12278;53.058;9.028;2023-03-23T04:50:38;11.18;;;9.55;;
24102;SDS011;12278;53.058;9.028;2023-03-23T04:54:39;8.02;;;7.22;;
24102;SDS011;12278;53.058;9.028;2023-03-23T04:58:40;8.93;;;8.02;;
24102;SDS011;12278;53.058;9.028;2023-03-23T05:02:41;9.10;;;7.17;;
24102;SDS011;12278;53.058;9.028;2023-03-23T05:06:43;8.65;;;5.88;;
24102;SDS011;12278;53.058;9.028;2023-03-23T05:10:52;8.90;;;7.05;;
24102;SDS011;12278;53.058;9.028;2023-03-23T05:14:56;6.72;;;6.03;;
24102;SDS011;12278;53.058;9.028;2023-03-23T05:18:57;10.35;;;5.60;;
24102;SDS011;12278;53.058;9.028;2023-03-23T05:27:09;5.85;;;5.25;;
24102;SDS011;12278;53.058;9.028;2023-03-23T05:31:10;6.63;;;5.05;;
24102;SDS011;12278;53.058;9.028;2023-03-23T05:35:13;6.68;;;5.47;;
24102;SDS011;12278;53.058;9.028;2023-03-23T05:39:13;7.05;;;6.05;;
24102;SDS011;12278;53.058;9.028;2023-03-23T05:43:14;5.57;;;5.05;;
24102;SDS011;12278;53.058;9.028;2023-03-23T05:47:15;6.93;;;4.88;;
24102;SDS011;12278;53.058;9.028;2023-03-23T05:51:19;5.85;;;4.65;;
24102;SDS011;12278;53.058;9.028;2023-03-23T05:55:20;6.50;;;4.75;;
24102;SDS011;12278;53.058;9.028;2023-03-23T05:59:21;5.15;;;4.10;;
24102;SDS011;12278;53.058;9.028;2023-03-23T06:03:21;5.07;;;4.55;;
24102;SDS011;12278;53.058;9.028;2023-03-23T06:07:23;6.03;;;3.97;;
24102;SDS011;12278;53.058;9.028;2023-03-23T06:11:24;5.82;;;4.40;;
24102;SDS011;12278;53.058;9.028;2023-03-23T06:15:26;5.95;;;4.70;;
24102;SDS011;12278;53.058;9.028;2023-03-23T06:19:37;5.43;;;4.50;;
24102;SDS011;12278;53.058;9.028;2023-03-23T06:23:37;4.43;;;4.03;;
24102;SDS011;12278;53.058;9.028;2023-03-23T06:27:39;4.95;;;4.10;;
24102;SDS011;12278;53.058;9.028;2023-03-23T06:31:41;8.00;;;4.30;;
24102;SDS011;12278;53.058;9.028;2023-03-23T06:35:45;5.18;;;4.15;;
24102;SDS011;12278;53.058;9.028;2023-03-23T06:39:47;4.90;;;4.50;;
24102;SDS011;12278;53.058;9.028;2023-03-23T06:43:53;5.35;;;4.68;;
24102;SDS011;12278;53.058;9.028;2023-03-23T06:47:54;5.93;;;5.38;;
24102;SDS011;12278;53.058;9.028;2023-03-23T06:51:55;6.00;;;5.38;;
24102;SDS011;12278;53.058;9.028;2023-03-23T06:55:56;6.43;;;5.28;;
24102;SDS011;12278;53.058;9.028;2023-03-23T06:59:56;8.50;;;6.05;;
24102;SDS011;12278;53.058;9.028;2023-03-23T07:03:57;7.03;;;6.32;;
24102;SDS011;12278;53.058;9.028;2023-03-23T07:07:58;6.78;;;5.63;;
24102;SDS011;12278;53.058;9.028;2023-03-23T07:11:59;6.30;;;5.70;;
24102;SDS011;12278;53.058;9.028;2023-03-23T07:16:04;6.45;;;5.80;;
24102;SDS011;12278;53.058;9.028;2023-03-23T07:20:06;6.60;;;5.93;;
24102;SDS011;12278;53.058;9.028;2023-03-23T07:24:12;7.88;;;5.63;;
24102;SDS011;12278;53.058;9.028;2023-03-23T07:28:15;6.15;;;5.57;;
24102;SDS011;12278;53.058;9.028;2023-03-23T07:32:17;6.07;;;4.35;;
24102;SDS011;12278;53.058;9.028;2023-03-23T07:36:18;6.07;;;4.95;;
24102;SDS011;12278;53.058;9.028;2023-03-23T07:40:19;6.50;;;5.55;;
24102;SDS011;12278;53.058;9.028;2023-03-23T07:44:21;6.35;;;5.18;;
24102;SDS011;12278;53.058;9.028;2023-03-23T07:48:22;7.63;;;6.07;;
24102;SDS011;12278;53.058;9.028;2023-03-23T07:52:23;7.88;;;6.18;;
24102;SDS011;12278;53.058;9.028;2023-03-23T07:56:24;5.13;;;3.88;;
24102;SDS011;12278;53.058;9.028;2023-03-23T08:00:25;7.95;;;3.45;;
24102;SDS011;12278;53.058;9.028;2023-03-23T08:04:26;4.70;;;2.92;;
24102;SDS011;12278;53.058;9.028;2023-03-23T08:08:27;3.05;;;2.75;;
24102;SDS011;12278;53.058;9.028;2023-03-23T08:12:27;3.42;;;2.50;;
24102;SDS011;12278;53.058;9.028;2023-03-23T08:16:28;1.95;;;1.70;;
24102;SDS011;12278;53.058;9.028;2023-03-23T08:20:29;5.50;;;2.10;;
24102;SDS011;12278;53.058;9.028;2023-03-23T08:24:37;1.83;;;1.67;;
24102;SDS011;12278;53.058;9.028;2023-03-23T08:28:38;7.03;;;2.70;;
24102;SDS011;12278;53.058;9.028;2023-03-23T08:32:39;4.90;;;2.13;;
24102;SDS011;12278;53.058;9.028;2023-03-23T08:36:43;8.70;;;2.67;;
24102;SDS011;12278;53.058;9.028;2023-03-23T08:40:46;5.90;;;2.30;;
24102;SDS011;12278;53.058;9.028;2023-03-23T08:44:47;5.45;;;2.28;;
24102;SDS011;12278;53.058;9.028;2023-03-23T08:48:48;5.35;;;2.10;;
24102;SDS011;12278;53.058;9.028;2023-03-23T08:52:49;8.88;;;2.60;;
24102;SDS011;12278;53.058;9.028;2023-03-23T08:56:50;9.00;;;2.80;;
24102;SDS011;12278;53.058;9.028;2023-03-23T09:00:51;7.72;;;2.90;;
24102;SDS011;12278;53.058;9.028;2023-03-23T09:04:51;4.32;;;2.22;;
24102;SDS011;12278;53.058;9.028;2023-03-23T09:08:53;7.15;;;3.58;;
24102;SDS011;12278;53.058;9.028;2023-03-23T09:12:56;7.03;;;3.28;;
24102;SDS011;12278;53.058;9.028;2023-03-23T09:16:57;6.75;;;3.20;;
24102;SDS011;12278;53.058;9.028;2023-03-23T09:20:58;8.48;;;2.58;;
24102;SDS011;12278;53.058;9.028;2023-03-23T09:24:59;7.18;;;2.90;;
24102;SDS011;12278;53.058;9.028;2023-03-23T09:29:01;9.10;;;3.70;;
24102;SDS011;12278;53.058;9.028;2023-03-23T09:33:03;7.22;;;3.85;;
24102;SDS011;12278;53.058;9.028;2023-03-23T09:37:04;5.53;;;2.70;;
24102;SDS011;12278;53.058;9.028;2023-03-23T09:50:14;6.95;;;2.85;;
24102;SDS011;12278;53.058;9.028;2023-03-23T09:58:41;5.68;;;2.25;;
24102;SDS011;12278;53.058;9.028;2023-03-23T10:02:57;5.75;;;2.33;;
24102;SDS011;12278;53.058;9.028;2023-03-23T10:07:26;5.53;;;2.50;;
24102;SDS011;12278;53.058;9.028;2023-03-23T10:11:44;10.93;;;2.65;;
24102;SDS011;12278;53.058;9.028;2023-03-23T10:15:51;6.85;;;2.72;;
24102;SDS011;12278;53.058;9.028;2023-03-23T10:23:59;8.10;;;3.30;;
24102;SDS011;12278;53.058;9.028;2023-03-23T10:28:17;7.50;;;2.97;;
24102;SDS011;12278;53.058;9.028;2023-03-23T10:32:36;4.60;;;2.65;;
24102;SDS011;12278;53.058;9.028;2023-03-23T10:41:17;4.43;;;2.97;;
24102;SDS011;12278;53.058;9.028;2023-03-23T10:45:20;5.60;;;3.58;;
24102;SDS011;12278;53.058;9.028;2023-03-23T10:49:23;8.32;;;3.28;;
24102;SDS011;12278;53.058;9.028;2023-03-23T10:53:37;6.53;;;3.35;;
24102;SDS011;12278;53.058;9.028;2023-03-23T10:57:57;8.27;;;3.03;;
24102;SDS011;12278;53.058;9.028;2023-03-23T11:02:03;7.22;;;3.58;;
24102;SDS011;12278;53.058;9.028;2023-03-23T11:06:28;5.35;;;2.85;;
24102;SDS011;12278;53.058;9.028;2023-03-23T11:10:38;4.63;;;2.25;;
24102;SDS011;12278;53.058;9.028;2023-03-23T11:14:44;7.22;;;3.67;;
24102;SDS011;12278;53.058;9.028;2023-03-23T11:18:44;6.18;;;3.17;;
24102;SDS011;12278;53.058;9.028;2023-03-23T11:22:45;6.20;;;4.00;;
24102;SDS011;12278;53.058;9.028;2023-03-23T11:26:47;4.65;;;3.40;;
24102;SDS011;12278;53.058;9.028;2023-03-23T11:30:49;5.43;;;2.75;;
24102;SDS011;12278;53.058;9.028;2023-03-23T11:34:57;5.47;;;3.38;;
24102;SDS011;12278;53.058;9.028;2023-03-23T11:39:00;8.20;;;3.60;;
24102;SDS011;12278;53.058;9.028;2023-03-23T11:43:13;5.75;;;3.00;;
24102;SDS011;12278;53.058;9.028;2023-03-23T11:51:42;3.00;;;2.65;;
24102;SDS011;12278;53.058;9.028;2023-03-23T11:55:56;6.38;;;3.08;;
24102;SDS011;12278;53.058;9.028;2023-03-23T12:00:12;5.50;;;2.95;;
24102;SDS011;12278;53.058;9.028;2023-03-23T12:51:02;3.85;;;2.38;;
24102;SDS011;12278;53.058;9.028;2023-03-23T12:55:40;2.03;;;1.63;;
24102;SDS011;12278;53.058;9.028;2023-03-23T13:04:12;1.55;;;1.45;;
24102;SDS011;12278;53.058;9.028;2023-03-23T13:08:19;5.63;;;1.73;;
24102;SDS011;12278;53.058;9.028;2023-03-23T13:12:26;2.05;;;1.77;;
24102;SDS011;12278;53.058;9.028;2023-03-23T13:16:32;1.58;;;1.33;;
24102;SDS011;12278;53.058;9.028;2023-03-23T13:25:07;2.65;;;1.88;;
24102;SDS011;12278;53.058;9.028;2023-03-23T13:29:19;2.17;;;1.63;;
24102;SDS011;12278;53.058;9.028;2023-03-23T13:33:24;3.45;;;1.80;;
24102;SDS011;12278;53.058;9.028;2023-03-23T13:37:25;3.40;;;1.75;;
24102;SDS011;12278;53.058;9.028;2023-03-23T13:41:27;3.08;;;2.10;;
24102;SDS011;12278;53.058;9.028;2023-03-23T13:49:33;4.30;;;2.03;;
24102;SDS011;12278;53.058;9.028;2023-03-23T13:53:46;3.53;;;1.92;;
24102;SDS011;12278;53.058;9.028;2023-03-23T13:57:57;2.92;;;2.28;;
24102;SDS011;12278;53.058;9.028;2023-03-23T14:06:49;4.25;;;2.80;;
24102;SDS011;12278;53.058;9.028;2023-03-23T14:10:52;1.88;;;1.67;;
24102;SDS011;12278;53.058;9.028;2023-03-23T14:14:57;3.15;;;1.25;;
24102;SDS011;12278;53.058;9.028;2023-03-23T14:19:12;2.47;;;1.40;;
24102;SDS011;12278;53.058;9.028;2023-03-23T14:23:23;2.17;;;1.15;;
24102;SDS011;12278;53.058;9.028;2023-03-23T14:27:26;2.97;;;1.40;;
24102;SDS011;12278;53.058;9.028;2023-03-23T14:31:27;1.80;;;0.93;;
24102;SDS011;12278;53.058;9.028;2023-03-23T14:35:30;3.83;;;1.92;;
24102;SDS011;12278;53.058;9.028;2023-03-23T14:39:33;2.65;;;1.70;;
24102;SDS011;12278;53.058;9.028;2023-03-23T14:43:37;2.70;;;1.13;;
24102;SDS011;12278;53.058;9.028;2023-03-23T14:47:38;0.95;;;0.77;;
24102;SDS011;12278;53.058;9.028;2023-03-23T14:55:54;2.17;;;0.98;;
24102;SDS011;12278;53.058;9.028;2023-03-23T15:00:03;5.30;;;2.15;;
24102;SDS011;12278;53.058;9.028;2023-03-23T15:08:24;3.40;;;1.50;;
24102;SDS011;12278;53.058;9.028;2023-03-23T15:12:30;3.58;;;1.67;;
24102;SDS011;12278;53.058;9.028;2023-03-23T15:16:32;5.57;;;2.17;;
24102;SDS011;12278;53.058;9.028;2023-03-23T15:20:47;2.45;;;1.65;;
24102;SDS011;12278;53.058;9.028;2023-03-23T15:24:50;6.20;;;1.50;;
24102;SDS011;12278;53.058;9.028;2023-03-23T15:33:09;4.10;;;2.60;;
24102;SDS011;12278;53.058;9.028;2023-03-23T15:37:20;6.22;;;1.60;;
24102;SDS011;12278;53.058;9.028;2023-03-23T15:41:27;2.92;;;1.42;;
24102;SDS011;12278;53.058;9.028;2023-03-23T15:45:30;2.75;;;1.48;;
24102;SDS011;12278;53.058;9.028;2023-03-23T15:49:31;3.33;;;2.10;;
24102;SDS011;12278;53.058;9.028;2023-03-23T15:53:35;3.03;;;1.73;;
24102;SDS011;12278;53.058;9.028;2023-03-23T15:57:38;3.25;;;1.70;;
24102;SDS011;12278;53.058;9.028;2023-03-23T16:01:39;3.90;;;1.73;;
24102;SDS011;12278;53.058;9.028;2023-03-23T16:05:41;6.85;;;1.90;;
24102;SDS011;12278;53.058;9.028;2023-03-23T16:09:42;4.22;;;1.77;;
24102;SDS011;12278;53.058;9.028;2023-03-23T16:13:43;4.70;;;1.60;;
24102;SDS011;12278;53.058;9.028;2023-03-23T16:17:46;1.38;;;1.15;;
24102;SDS011;12278;53.058;9.028;2023-03-23T16:21:47;4.35;;;1.50;;
24102;SDS011;12278;53.058;9.028;2023-03-23T16:25:47;7.05;;;1.58;;
24102;SDS011;12278;53.058;9.028;2023-03-23T16:29:48;2.03;;;1.08;;
24102;SDS011;12278;53.058;9.028;2023-03-23T16:33:49;1.33;;;1.23;;
24102;SDS011;12278;53.058;9.028;2023-03-23T16:37:51;3.38;;;1.38;;
24102;SDS011;12278;53.058;9.028;2023-03-23T16:41:53;3.10;;;1.27;;
24102;SDS011;12278;53.058;9.028;2023-03-23T16:45:54;1.77;;;1.30;;
24102;SDS011;12278;53.058;9.028;2023-03-23T16:49:56;1.50;;;1.40;;
24102;SDS011;12278;53.058;9.028;2023-03-23T16:53:56;3.28;;;1.50;;
24102;SDS011;12278;53.058;9.028;2023-03-23T16:57:57;2.40;;;1.13;;
24102;SDS011;12278;53.058;9.028;2023-03-23T17:01:58;1.67;;;1.17;;
24102;SDS011;12278;53.058;9.028;2023-03-23T17:06:02;4.68;;;1.27;;
24102;SDS011;12278;53.058;9.028;2023-03-23T17:10:04;3.33;;;1.40;;
24102;SDS011;12278;53.058;9.028;2023-03-23T17:14:06;4.43;;;1.73;;
24102;SDS011;12278;53.058;9.028;2023-03-23T17:18:07;2.03;;;1.23;;
24102;SDS011;12278;53.058;9.028;2023-03-23T17:22:08;3.25;;;1.52;;
24102;SDS011;12278;53.058;9.028;2023-03-23T17:26:08;5.15;;;1.70;;
24102;SDS011;12278;53.058;9.028;2023-03-23T17:30:09;1.95;;;1.30;;
24102;SDS011;12278;53.058;9.028;2023-03-23T17:34:10;4.25;;;1.45;;
24102;SDS011;12278;53.058;9.028;2023-03-23T17:38:11;1.95;;;1.48;;
24102;SDS011;12278;53.058;9.028;2023-03-23T17:42:11;2.45;;;1.83;;
24102;SDS011;12278;53.058;9.028;2023-03-23T17:46:12;3.97;;;1.83;;
24102;SDS011;12278;53.058;9.028;2023-03-23T17:50:13;4.50;;;2.20;;
24102;SDS011;12278;53.058;9.028;2023-03-23T17:54:14;6.72;;;2.38;;
24102;SDS011;12278;53.058;9.028;2023-03-23T17:58:15;3.55;;;2.30;;
24102;SDS011;12278;53.058;9.028;2023-03-23T18:02:15;5.70;;;2.58;;
24102;SDS011;12278;53.058;9.028;2023-03-23T18:06:17;4.88;;;1.98;;
24102;SDS011;12278;53.058;9.028;2023-03-23T18:10:18;4.93;;;2.20;;
24102;SDS011;12278;53.058;9.028;2023-03-23T18:14:19;3.15;;;2.20;;
24102;SDS011;12278;53.058;9.028;2023-03-23T18:18:20;4.47;;;2.60;;
24102;SDS011;12278;53.058;9.028;2023-03-23T18:22:21;3.45;;;2.40;;
24102;SDS011;12278;53.058;9.028;2023-03-23T18:26:30;2.72;;;2.35;;
24102;SDS011;12278;53.058;9.028;2023-03-23T18:30:32;3.28;;;2.38;;
24102;SDS011;12278;53.058;9.028;2023-03-23T18:34:33;5.60;;;2.38;;
24102;SDS011;12278;53.058;9.028;2023-03-23T18:38:36;5.40;;;2.40;;
24102;SDS011;12278;53.058;9.028;2023-03-23T18:42:37;5.00;;;2.53;;
24102;SDS011;12278;53.058;9.028;2023-03-23T18:46:47;2.28;;;1.63;;
24102;SDS011;12278;53.058;9.028;2023-03-23T18:50:51;2.70;;;1.45;;
24102;SDS011;12278;53.058;9.028;2023-03-23T18:54:54;1.75;;;1.58;;
24102;SDS011;12278;53.058;9.028;2023-03-23T18:58:58;4.53;;;2.22;;
24102;SDS011;12278;53.058;9.028;2023-03-23T19:02:58;3.90;;;2.70;;
24102;SDS011;12278;53.058;9.028;2023-03-23T19:07:01;4.38;;;2.55;;
24102;SDS011;12278;53.058;9.028;2023-03-23T19:11:03;6.35;;;3.25;;
24102;SDS011;12278;53.058;9.028;2023-03-23T19:15:17;2.30;;;1.70;;
24102;SDS011;12278;53.058;9.028;2023-03-23T19:19:18;5.88;;;2.70;;
24102;SDS011;12278;53.058;9.028;2023-03-23T19:23:19;3.58;;;1.88;;
24102;SDS011;12278;53.058;9.028;2023-03-23T19:27:21;5.20;;;2.58;;
24102;SDS011;12278;53.058;9.028;2023-03-23T19:31:21;5.47;;;2.42;;
24102;SDS011;12278;53.058;9.028;2023-03-23T19:35:23;2.55;;;2.00;;
24102;SDS011;12278;53.058;9.028;2023-03-23T19:39:25;2.05;;;1.92;;
24102;SDS011;12278;53.058;9.028;2023-03-23T19:43:25;4.18;;;2.95;;
24102;SDS011;12278;53.058;9.028;2023-03-23T19:47:26;5.78;;;2.70;;
24102;SDS011;12278;53.058;9.028;2023-03-23T19:51:28;4.72;;;2.95;;
24102;SDS011;12278;53.058;9.028;2023-03-23T19:55:33;4.10;;;3.70;;
24102;SDS011;12278;53.058;9.028;2023-03-23T19:59:35;5.57;;;3.42;;
24102;SDS011;12278;53.058;9.028;2023-03-23T20:03:36;5.07;;;4.57;;
24102;SDS011;12278;53.058;9.028;2023-03-23T20:07:38;5.10;;;4.63;;
24102;SDS011;12278;53.058;9.028;2023-03-23T20:11:39;6.85;;;5.05;;
24102;SDS011;12278;53.058;9.028;2023-03-23T20:15:40;5.93;;;5.20;;
24102;SDS011;12278;53.058;9.028;2023-03-23T20:19:41;5.63;;;5.10;;
24102;SDS011;12278;53.058;9.028;2023-03-23T20:23:42;5.78;;;5.22;;
24102;SDS011;12278;53.058;9.028;2023-03-23T20:27:42;6.10;;;5.50;;
24102;SDS011;12278;53.058;9.028;2023-03-23T20:31:45;8.18;;;6.15;;
24102;SDS011;12278;53.058;9.028;2023-03-23T20:35:46;7.03;;;6.18;;
24102;SDS011;12278;53.058;9.028;2023-03-23T20:39:46;8.45;;;6.35;;
24102;SDS011;12278;53.058;9.028;2023-03-23T20:43:47;7.32;;;5.93;;
24102;SDS011;12278;53.058;9.028;2023-03-23T20:47:48;7.30;;;6.47;;
24102;SDS011;12278;53.058;9.028;2023-03-23T20:51:50;7.18;;;6.47;;
24102;SDS011;12278;53.058;9.028;2023-03-23T20:55:51;8.48;;;5.65;;
24102;SDS011;12278;53.058;9.028;2023-03-23T20:59:51;8.10;;;6.80;;
24102;SDS011;12278;53.058;9.028;2023-03-23T21:03:52;10.30;;;6.70;;
24102;SDS011;12278;53.058;9.028;2023-03-23T21:07:55;7.32;;;6.55;;
24102;SDS011;12278;53.058;9.028;2023-03-23T21:11:56;8.68;;;7.32;;
24102;SDS011;12278;53.058;9.028;2023-03-23T21:15:59;9.02;;;7.05;;
24102;SDS011;12278;53.058;9.028;2023-03-23T21:20:03;8.45;;;6.68;;
24102;SDS011;12278;53.058;9.028;2023-03-23T21:24:10;9.85;;;6.90;;
24102;SDS011;12278;53.058;9.028;2023-03-23T21:28:11;9.02;;;7.05;;
24102;SDS011;12278;53.058;9.028;2023-03-23T21:32:12;8.07;;;6.78;;
24102;SDS011;12278;53.058;9.028;2023-03-23T21:36:13;8.23;;;6.93;;
24102;SDS011;12278;53.058;9.028;2023-03-23T21:40:15;10.88;;;6.70;;
24102;SDS011;12278;53.058;9.028;2023-03-23T21:44:17;10.52;;;7.90;;
24102;SDS011;12278;53.058;9.028;2023-03-23T21:48:18;10.45;;;7.40;;
24102;SDS011;12278;53.058;9.028;2023-03-23T21:52:21;9.02;;;6.88;;
24102;SDS011;12278;53.058;9.028;2023-03-23T21:56:23;10.15;;;7.45;;
24102;SDS011;12278;53.058;9.028;2023-03-23T22:00:26;8.60;;;6.80;;
24102;SDS011;12278;53.058;9.028;2023-03-23T22:04:27;11.90;;;6.50;;
24102;SDS011;12278;53.058;9.028;2023-03-23T22:08:28;7.60;;;6.00;;
24102;SDS011;12278;53.058;9.028;2023-03-23T22:12:29;7.25;;;5.68;;
24102;SDS011;12278;53.058;9.028;2023-03-23T22:16:32;8.32;;;5.55;;
24102;SDS011;12278;53.058;9.028;2023-03-23T22:20:32;6.93;;;5.88;;
24102;SDS011;12278;53.058;9.028;2023-03-23T22:24:34;6.63;;;5.32;;
24102;SDS011;12278;53.058;9.028;2023-03-23T22:28:35;7.25;;;6.10;;
24102;SDS011;12278;53.058;9.028;2023-03-23T22:32:36;7.18;;;4.78;;
24102;SDS011;12278;53.058;9.028;2023-03-23T22:36:38;10.10;;;5.97;;
24102;SDS011;12278;53.058;9.028;2023-03-23T22:40:39;8.10;;;5.40;;
24102;SDS011;12278;53.058;9.028;2023-03-23T22:44:41;6.70;;;4.97;;
24102;SDS011;12278;53.058;9.028;2023-03-23T22:48:42;6.38;;;4.78;;
24102;SDS011;12278;53.058;9.028;2023-03-23T22:52:44;8.07;;;4.95;;
24102;SDS011;12278;53.058;9.028;2023-03-23T22:56:44;5.82;;;4.18;;
24102;SDS011;12278;53.058;9.028;2023-03-23T23:00:48;5.20;;;4.22;;
24102;SDS011;12278;53.058;9.028;2023-03-23T23:04:50;5.03;;;4.28;;
24102;SDS011;12278;53.058;9.028;2023-03-23T23:08:51;5.32;;;3.53;;
24102;SDS011;12278;53.058;9.028;2023-03-23T23:12:52;4.78;;;3.92;;
24102;SDS011;12278;53.058;9.028;2023-03-23T23:16:53;4.88;;;3.38;;
24102;SDS011;12278;53.058;9.028;2023-03-23T23:20:56;5.85;;;3.03;;
24102;SDS011;12278;53.058;9.028;2023-03-23T23:24:58;6.70;;;3.38;;
24102;SDS011;12278;53.058;9.028;2023-03-23T23:29:00;5.65;;;3.20;;
24102;SDS011;12278;53.058;9.028;2023-03-23T23:33:01;4.93;;;3.38;;
24102;SDS011;12278;53.058;9.028;2023-03-23T23:37:04;3.70;;;2.88;;
24102;SDS011;12278;53.058;9.028;2023-03-23T23:41:10;3.50;;;3.03;;
24102;SDS011;12278;53.058;9.028;2023-03-23T23:45:11;4.28;;;2.80;;
24102;SDS011;12278;53.058;9.028;2023-03-23T23:49:13;4.35;;;3.70;;
24102;SDS011;12278;53.058;9.028;2023-03-23T23:53:14;3.75;;;3.30;;
24102;SDS011;12278;53.058;9.028;2023-03-23T23:57:15;6.38;;;2.53;;
